PWSweather.com
Personal Weather Stations
Station Observations
KOMOKA2
Middlesex Centre, Komoka, ON N0L 1R0

Middlesex CentreKomoka, ON N0L 1R0

Lat: 42.9542444, Lon: -81.4348861

Elevation: 805

Station Type: Davis VP2 w/ Vue Console

High Low Average
Temperature 66.7°F19.3°C 58.0°F14.4°C 62.1°F16.7°C
Dew Point 59.0°F15.0°C 45.0°F7.2°C 52.4°F11.3°C
Winds 4.9 mph 7.9 kmh Calm Calm 3.0 mph SW4.8 kmh SW
Wind Gusts 14.0 mph22.5 kmh -- 7.0 mph11.3 kmh
Humidity 77% 61% 71%
Pressure 30.26 in1024.7 mb 30.04 in1017.3 mb -
Precipitation 0.38 in9.7 mm - -
Hour Temp Dew Point Humidity Winds Wind Gusts Pressure Precip Precip Rate Daily Precip Total
12:00 AM 66.0°F18.9°C 58.0°F14.4°C 76% 0.5 mph N0.8 kmh N 2.0 mph3.2 kmh 30.05 in1017.6 mb 0.00 in0.0 mm 0.00 in0.0 mm 0.00 in0.0 mm
12:05 AM 66.0°F18.9°C 58.0°F14.4°C 76% 0.6 mph N1.0 kmh N 2.0 mph3.2 kmh 30.05 in1017.6 mb 0.00 in0.0 mm 0.00 in0.0 mm 0.00 in0.0 mm
12:10 AM 65.9°F18.8°C 59.0°F15.0°C 77% 0.1 mph N0.2 kmh N 1.0 mph1.6 kmh 30.05 in1017.6 mb 0.00 in0.0 mm 0.00 in0.0 mm 0.00 in0.0 mm
12:15 AM 66.0°F18.9°C 59.0°F15.0°C 77% Calm Calm -- 30.05 in1017.6 mb 0.00 in0.0 mm 0.00 in0.0 mm 0.00 in0.0 mm
12:20 AM 65.9°F18.8°C 58.0°F14.4°C 76% Calm Calm -- 30.05 in1017.6 mb 0.00 in0.0 mm 0.00 in0.0 mm 0.00 in0.0 mm
12:25 AM 65.9°F18.8°C 58.0°F14.4°C 76% 0.1 mph N0.2 kmh N 1.0 mph1.6 kmh 30.05 in1017.6 mb 0.00 in0.0 mm 0.00 in0.0 mm 0.00 in0.0 mm
12:30 AM 65.8°F18.8°C 58.0°F14.4°C 77% 0.1 mph N0.2 kmh N 1.0 mph1.6 kmh 30.05 in1017.6 mb 0.00 in0.0 mm 0.00 in0.0 mm 0.00 in0.0 mm
12:35 AM 65.8°F18.8°C 58.0°F14.4°C 77% Calm Calm 1.0 mph1.6 kmh 30.05 in1017.6 mb 0.00 in0.0 mm 0.00 in0.0 mm 0.00 in0.0 mm
12:40 AM 65.8°F18.8°C 58.0°F14.4°C 77% Calm Calm 1.0 mph1.6 kmh 30.04 in1017.3 mb 0.00 in0.0 mm 0.00 in0.0 mm 0.00 in0.0 mm
12:45 AM 65.7°F18.7°C 58.0°F14.4°C 77% Calm Calm 1.0 mph1.6 kmh 30.04 in1017.3 mb 0.00 in0.0 mm 0.00 in0.0 mm 0.00 in0.0 mm
12:50 AM 65.7°F18.7°C 58.0°F14.4°C 77% Calm Calm -- 30.05 in1017.6 mb 0.00 in0.0 mm 0.00 in0.0 mm 0.00 in0.0 mm
12:55 AM 65.6°F18.7°C 58.0°F14.4°C 77% Calm Calm -- 30.05 in1017.6 mb 0.00 in0.0 mm 0.00 in0.0 mm 0.00 in0.0 mm
01:00 AM 65.7°F18.7°C 58.0°F14.4°C 77% Calm Calm 1.0 mph1.6 kmh 30.05 in1017.6 mb 0.00 in0.0 mm 0.00 in0.0 mm 0.00 in0.0 mm
01:05 AM 65.7°F18.7°C 58.0°F14.4°C 77% Calm Calm 1.0 mph1.6 kmh 30.05 in1017.6 mb 0.00 in0.0 mm 0.00 in0.0 mm 0.00 in0.0 mm
01:10 AM 65.6°F18.7°C 58.0°F14.4°C 77% Calm Calm -- 30.05 in1017.6 mb 0.00 in0.0 mm 0.00 in0.0 mm 0.00 in0.0 mm
01:15 AM 65.6°F18.7°C 58.0°F14.4°C 77% Calm Calm -- 30.05 in1017.6 mb 0.00 in0.0 mm 0.00 in0.0 mm 0.00 in0.0 mm
01:20 AM 65.7°F18.7°C 58.0°F14.4°C 77% Calm Calm -- 30.05 in1017.6 mb 0.00 in0.0 mm 0.00 in0.0 mm 0.00 in0.0 mm
01:25 AM 65.8°F18.8°C 58.0°F14.4°C 77% Calm Calm -- 30.05 in1017.6 mb 0.00 in0.0 mm 0.00 in0.0 mm 0.00 in0.0 mm
01:30 AM 65.8°F18.8°C 58.0°F14.4°C 77% Calm Calm -- 30.05 in1017.6 mb 0.00 in0.0 mm 0.00 in0.0 mm 0.00 in0.0 mm
01:35 AM 65.7°F18.7°C 58.0°F14.4°C 77% Calm Calm 1.0 mph1.6 kmh 30.04 in1017.3 mb 0.00 in0.0 mm 0.00 in0.0 mm 0.00 in0.0 mm
01:40 AM 65.5°F18.6°C 58.0°F14.4°C 77% Calm Calm 1.0 mph1.6 kmh 30.04 in1017.3 mb 0.00 in0.0 mm 0.00 in0.0 mm 0.00 in0.0 mm
01:45 AM 65.5°F18.6°C 58.0°F14.4°C 76% Calm Calm -- 30.05 in1017.6 mb 0.00 in0.0 mm 0.00 in0.0 mm 0.00 in0.0 mm
01:50 AM 65.6°F18.7°C 58.0°F14.4°C 77% Calm Calm -- 30.04 in1017.3 mb 0.00 in0.0 mm 0.00 in0.0 mm 0.00 in0.0 mm
01:55 AM 65.7°F18.7°C 58.0°F14.4°C 77% Calm Calm -- 30.04 in1017.3 mb 0.00 in0.0 mm 0.00 in0.0 mm 0.00 in0.0 mm
02:00 AM 65.7°F18.7°C 58.0°F14.4°C 77% Calm Calm -- 30.04 in1017.3 mb 0.00 in0.0 mm 0.00 in0.0 mm 0.00 in0.0 mm
02:05 AM 65.8°F18.8°C 58.0°F14.4°C 77% Calm Calm -- 30.04 in1017.3 mb 0.00 in0.0 mm 0.00 in0.0 mm 0.00 in0.0 mm
02:10 AM 65.8°F18.8°C 58.0°F14.4°C 77% Calm Calm -- 30.04 in1017.3 mb 0.00 in0.0 mm 0.00 in0.0 mm 0.00 in0.0 mm
02:15 AM 65.8°F18.8°C 58.0°F14.4°C 77% Calm Calm -- 30.04 in1017.3 mb 0.00 in0.0 mm 0.00 in0.0 mm 0.00 in0.0 mm
02:20 AM 65.9°F18.8°C 59.0°F15.0°C 77% Calm Calm -- 30.04 in1017.3 mb 0.00 in0.0 mm 0.00 in0.0 mm 0.00 in0.0 mm
02:25 AM 65.8°F18.8°C 58.0°F14.4°C 77% Calm Calm -- 30.04 in1017.3 mb 0.00 in0.0 mm 0.00 in0.0 mm 0.00 in0.0 mm
02:30 AM 65.9°F18.8°C 59.0°F15.0°C 77% Calm Calm -- 30.04 in1017.3 mb 0.00 in0.0 mm 0.00 in0.0 mm 0.00 in0.0 mm
02:35 AM 65.9°F18.8°C 59.0°F15.0°C 77% Calm Calm -- 30.04 in1017.3 mb 0.00 in0.0 mm 0.00 in0.0 mm 0.00 in0.0 mm
02:40 AM 65.9°F18.8°C 59.0°F15.0°C 77% Calm Calm -- 30.04 in1017.3 mb 0.00 in0.0 mm 0.00 in0.0 mm 0.00 in0.0 mm
02:45 AM 66.0°F18.9°C 59.0°F15.0°C 77% Calm Calm -- 30.04 in1017.3 mb 0.00 in0.0 mm 0.00 in0.0 mm 0.00 in0.0 mm
02:50 AM 66.1°F18.9°C 59.0°F15.0°C 77% Calm Calm -- 30.04 in1017.3 mb 0.00 in0.0 mm 0.00 in0.0 mm 0.00 in0.0 mm
02:55 AM 66.1°F18.9°C 59.0°F15.0°C 77% Calm Calm -- 30.04 in1017.3 mb 0.00 in0.0 mm 0.00 in0.0 mm 0.00 in0.0 mm
03:00 AM 66.2°F19.0°C 59.0°F15.0°C 77% Calm Calm -- 30.05 in1017.6 mb 0.00 in0.0 mm 0.00 in0.0 mm 0.00 in0.0 mm
03:05 AM 66.3°F19.1°C 59.0°F15.0°C 77% Calm Calm -- 30.05 in1017.6 mb 0.00 in0.0 mm 0.00 in0.0 mm 0.00 in0.0 mm
03:10 AM 66.3°F19.1°C 59.0°F15.0°C 77% Calm Calm -- 30.05 in1017.6 mb 0.00 in0.0 mm 0.00 in0.0 mm 0.00 in0.0 mm
03:15 AM 66.4°F19.1°C 59.0°F15.0°C 77% Calm Calm -- 30.05 in1017.6 mb 0.00 in0.0 mm 0.00 in0.0 mm 0.00 in0.0 mm
03:20 AM 66.5°F19.2°C 59.0°F15.0°C 77% Calm Calm -- 30.05 in1017.6 mb 0.00 in0.0 mm 0.00 in0.0 mm 0.00 in0.0 mm
03:25 AM 66.5°F19.2°C 59.0°F15.0°C 77% Calm Calm -- 30.05 in1017.6 mb 0.00 in0.0 mm 0.00 in0.0 mm 0.00 in0.0 mm
03:30 AM 66.5°F19.2°C 59.0°F15.0°C 77% Calm Calm -- 30.05 in1017.6 mb 0.00 in0.0 mm 0.00 in0.0 mm 0.00 in0.0 mm
03:35 AM 66.6°F19.2°C 59.0°F15.0°C 77% Calm Calm -- 30.05 in1017.6 mb 0.00 in0.0 mm 0.00 in0.0 mm 0.00 in0.0 mm
03:40 AM 66.6°F19.2°C 59.0°F15.0°C 77% Calm Calm -- 30.05 in1017.6 mb 0.00 in0.0 mm 0.00 in0.0 mm 0.00 in0.0 mm
03:45 AM 66.6°F19.2°C 59.0°F15.0°C 77% Calm Calm -- 30.05 in1017.6 mb 0.00 in0.0 mm 0.00 in0.0 mm 0.00 in0.0 mm
03:50 AM 66.7°F19.3°C 59.0°F15.0°C 77% Calm Calm -- 30.05 in1017.6 mb 0.00 in0.0 mm 0.00 in0.0 mm 0.00 in0.0 mm
03:55 AM 66.7°F19.3°C 59.0°F15.0°C 77% Calm Calm -- 30.05 in1017.6 mb 0.00 in0.0 mm 0.00 in0.0 mm 0.00 in0.0 mm
04:00 AM 66.7°F19.3°C 59.0°F15.0°C 77% Calm Calm -- 30.05 in1017.6 mb 0.00 in0.0 mm 0.00 in0.0 mm 0.00 in0.0 mm
04:05 AM 66.6°F19.2°C 59.0°F15.0°C 77% 0.5 mph N0.8 kmh N 4.0 mph6.4 kmh 30.06 in1017.9 mb 0.00 in0.0 mm 0.00 in0.0 mm 0.00 in0.0 mm
04:10 AM 66.3°F19.1°C 59.0°F15.0°C 76% 1.0 mph N1.6 kmh N 4.0 mph6.4 kmh 30.06 in1017.9 mb 0.00 in0.0 mm 0.00 in0.0 mm 0.00 in0.0 mm
04:15 AM 66.3°F19.1°C 59.0°F15.0°C 76% 0.7 mph N1.1 kmh N 4.0 mph6.4 kmh 30.06 in1017.9 mb 0.00 in0.0 mm 0.00 in0.0 mm 0.00 in0.0 mm
04:20 AM 66.2°F19.0°C 58.0°F14.4°C 76% 0.6 mph N1.0 kmh N 3.0 mph4.8 kmh 30.06 in1017.9 mb 0.00 in0.0 mm 0.00 in0.0 mm 0.00 in0.0 mm
04:25 AM 66.3°F19.1°C 59.0°F15.0°C 76% 0.6 mph N1.0 kmh N 3.0 mph4.8 kmh 30.07 in1018.3 mb 0.00 in0.0 mm 0.00 in0.0 mm 0.00 in0.0 mm
04:30 AM 66.3°F19.1°C 59.0°F15.0°C 76% 0.2 mph N0.3 kmh N 2.0 mph3.2 kmh 30.07 in1018.3 mb 0.00 in0.0 mm 0.00 in0.0 mm 0.00 in0.0 mm
04:35 AM 66.2°F19.0°C 58.0°F14.4°C 76% 0.4 mph N0.6 kmh N 4.0 mph6.4 kmh 30.07 in1018.3 mb 0.00 in0.0 mm 0.00 in0.0 mm 0.00 in0.0 mm
04:40 AM 66.2°F19.0°C 58.0°F14.4°C 76% 1.2 mph N1.9 kmh N 4.0 mph6.4 kmh 30.07 in1018.3 mb 0.00 in0.0 mm 0.00 in0.0 mm 0.00 in0.0 mm
04:45 AM 66.1°F18.9°C 58.0°F14.4°C 76% 1.3 mph N2.1 kmh N 3.0 mph4.8 kmh 30.08 in1018.6 mb 0.00 in0.0 mm 0.00 in0.0 mm 0.00 in0.0 mm
04:50 AM 66.1°F18.9°C 58.0°F14.4°C 76% 1.0 mph N1.6 kmh N 3.0 mph4.8 kmh 30.08 in1018.6 mb 0.00 in0.0 mm 0.00 in0.0 mm 0.00 in0.0 mm
04:55 AM 66.1°F18.9°C 58.0°F14.4°C 76% 0.5 mph N0.8 kmh N 3.0 mph4.8 kmh 30.09 in1019.0 mb 0.00 in0.0 mm 0.00 in0.0 mm 0.00 in0.0 mm
05:00 AM 66.1°F18.9°C 58.0°F14.4°C 76% 0.1 mph N0.2 kmh N 1.0 mph1.6 kmh 30.09 in1019.0 mb 0.00 in0.0 mm 0.00 in0.0 mm 0.00 in0.0 mm
05:05 AM 65.7°F18.7°C 58.0°F14.4°C 76% 1.1 mph N1.8 kmh N 5.0 mph8.0 kmh 30.09 in1019.0 mb 0.00 in0.0 mm 0.00 in0.0 mm 0.00 in0.0 mm
05:10 AM 65.4°F18.6°C 58.0°F14.4°C 76% 1.8 mph N2.9 kmh N 6.0 mph9.7 kmh 30.09 in1019.0 mb 0.00 in0.0 mm 0.00 in0.0 mm 0.00 in0.0 mm
05:15 AM 65.2°F18.4°C 57.0°F13.9°C 76% 2.3 mph N3.7 kmh N 6.0 mph9.7 kmh 30.09 in1019.0 mb 0.00 in0.0 mm 0.00 in0.0 mm 0.00 in0.0 mm
05:20 AM 65.0°F18.3°C 57.0°F13.9°C 76% 3.0 mph N4.8 kmh N 6.0 mph9.7 kmh 30.10 in1019.3 mb 0.00 in0.0 mm 0.00 in0.0 mm 0.00 in0.0 mm
05:25 AM 65.0°F18.3°C 57.0°F13.9°C 76% 2.8 mph N4.5 kmh N 6.0 mph9.7 kmh 30.10 in1019.3 mb 0.00 in0.0 mm 0.00 in0.0 mm 0.00 in0.0 mm
05:30 AM 64.9°F18.3°C 57.0°F13.9°C 76% 2.6 mph N4.2 kmh N 5.0 mph8.0 kmh 30.10 in1019.3 mb 0.00 in0.0 mm 0.00 in0.0 mm 0.00 in0.0 mm
05:35 AM 64.8°F18.2°C 57.0°F13.9°C 76% 2.6 mph N4.2 kmh N 5.0 mph8.0 kmh 30.10 in1019.3 mb 0.00 in0.0 mm 0.00 in0.0 mm 0.00 in0.0 mm
05:40 AM 64.7°F18.2°C 57.0°F13.9°C 76% 2.4 mph N3.9 kmh N 5.0 mph8.0 kmh 30.10 in1019.3 mb 0.00 in0.0 mm 0.00 in0.0 mm 0.00 in0.0 mm
05:45 AM 64.7°F18.2°C 57.0°F13.9°C 76% 2.3 mph N3.7 kmh N 5.0 mph8.0 kmh 30.10 in1019.3 mb 0.00 in0.0 mm 0.00 in0.0 mm 0.00 in0.0 mm
05:50 AM 64.8°F18.2°C 57.0°F13.9°C 76% 2.3 mph N3.7 kmh N 5.0 mph8.0 kmh 30.11 in1019.6 mb 0.00 in0.0 mm 0.00 in0.0 mm 0.00 in0.0 mm
05:55 AM 64.6°F18.1°C 57.0°F13.9°C 76% 2.9 mph N4.7 kmh N 7.0 mph11.3 kmh 30.11 in1019.6 mb 0.00 in0.0 mm 0.00 in0.0 mm 0.00 in0.0 mm
06:00 AM 64.5°F18.1°C 57.0°F13.9°C 76% 3.4 mph N5.5 kmh N 7.0 mph11.3 kmh 30.11 in1019.6 mb 0.00 in0.0 mm 0.00 in0.0 mm 0.00 in0.0 mm
06:05 AM 64.5°F18.1°C 57.0°F13.9°C 76% 2.8 mph N4.5 kmh N 6.0 mph9.7 kmh 30.11 in1019.6 mb 0.00 in0.0 mm 0.00 in0.0 mm 0.00 in0.0 mm
06:10 AM 64.2°F17.9°C 57.0°F13.9°C 76% 2.6 mph N4.2 kmh N 5.0 mph8.0 kmh 30.11 in1019.6 mb 0.00 in0.0 mm 0.00 in0.0 mm 0.00 in0.0 mm
06:15 AM 63.7°F17.6°C 56.0°F13.3°C 76% 3.5 mph N5.6 kmh N 10.0 mph16.1 kmh 30.11 in1019.6 mb 0.00 in0.0 mm 0.00 in0.0 mm 0.00 in0.0 mm
06:20 AM 63.5°F17.5°C 56.0°F13.3°C 76% 3.5 mph N5.6 kmh N 10.0 mph16.1 kmh 30.11 in1019.6 mb 0.00 in0.0 mm 0.00 in0.0 mm 0.00 in0.0 mm
06:25 AM 63.1°F17.3°C 55.0°F12.8°C 76% 2.9 mph N4.7 kmh N 7.0 mph11.3 kmh 30.11 in1019.6 mb 0.00 in0.0 mm 0.00 in0.0 mm 0.00 in0.0 mm
06:30 AM 62.9°F17.2°C 55.0°F12.8°C 76% 3.2 mph N5.1 kmh N 9.0 mph14.5 kmh 30.11 in1019.6 mb 0.00 in0.0 mm 0.00 in0.0 mm 0.00 in0.0 mm
06:35 AM 62.7°F17.1°C 55.0°F12.8°C 76% 3.5 mph N5.6 kmh N 9.0 mph14.5 kmh 30.12 in1020.0 mb 0.00 in0.0 mm 0.00 in0.0 mm 0.00 in0.0 mm
06:40 AM 62.6°F17.0°C 55.0°F12.8°C 76% 3.7 mph N6.0 kmh N 9.0 mph14.5 kmh 30.13 in1020.3 mb 0.00 in0.0 mm 0.00 in0.0 mm 0.00 in0.0 mm
06:45 AM 62.3°F16.8°C 55.0°F12.8°C 76% 4.4 mph N7.1 kmh N 10.0 mph16.1 kmh 30.13 in1020.3 mb 0.00 in0.0 mm 0.00 in0.0 mm 0.00 in0.0 mm
06:50 AM 62.1°F16.7°C 54.0°F12.2°C 76% 4.6 mph N7.4 kmh N 9.0 mph14.5 kmh 30.13 in1020.3 mb 0.00 in0.0 mm 0.00 in0.0 mm 0.00 in0.0 mm
06:55 AM 61.9°F16.6°C 54.0°F12.2°C 76% 3.8 mph N6.1 kmh N 9.0 mph14.5 kmh 30.13 in1020.3 mb 0.00 in0.0 mm 0.00 in0.0 mm 0.00 in0.0 mm
07:00 AM 61.3°F16.3°C 54.0°F12.2°C 76% 4.2 mph N6.8 kmh N 10.0 mph16.1 kmh 30.13 in1020.3 mb 0.00 in0.0 mm 0.00 in0.0 mm 0.00 in0.0 mm
07:05 AM 61.0°F16.1°C 53.0°F11.7°C 76% 4.8 mph N7.7 kmh N 10.0 mph16.1 kmh 30.13 in1020.3 mb 0.00 in0.0 mm 0.00 in0.0 mm 0.00 in0.0 mm
07:10 AM 60.9°F16.1°C 53.0°F11.7°C 76% 4.1 mph N6.6 kmh N 9.0 mph14.5 kmh 30.13 in1020.3 mb 0.00 in0.0 mm 0.00 in0.0 mm 0.00 in0.0 mm
07:15 AM 60.9°F16.1°C 53.0°F11.7°C 76% 3.7 mph N6.0 kmh N 8.0 mph12.9 kmh 30.14 in1020.7 mb 0.00 in0.0 mm 0.00 in0.0 mm 0.00 in0.0 mm
07:20 AM 60.8°F16.0°C 53.0°F11.7°C 76% 3.4 mph N5.5 kmh N 8.0 mph12.9 kmh 30.14 in1020.7 mb 0.00 in0.0 mm 0.00 in0.0 mm 0.00 in0.0 mm
07:25 AM 60.7°F15.9°C 53.0°F11.7°C 76% 3.3 mph N5.3 kmh N 8.0 mph12.9 kmh 30.14 in1020.7 mb 0.00 in0.0 mm 0.00 in0.0 mm 0.00 in0.0 mm
07:30 AM 60.5°F15.8°C 53.0°F11.7°C 76% 3.8 mph N6.1 kmh N 11.0 mph17.7 kmh 30.14 in1020.7 mb 0.13 in3.3 mm 1.56 in39.6 mm 0.38 in9.7 mm
07:35 AM 60.2°F15.7°C 53.0°F11.7°C 76% 4.0 mph N6.4 kmh N 11.0 mph17.7 kmh 30.15 in1021.0 mb 0.06 in1.5 mm 0.00 in0.0 mm 0.38 in9.7 mm
07:40 AM 60.0°F15.6°C 52.0°F11.1°C 76% 3.5 mph N5.6 kmh N 8.0 mph12.9 kmh 30.15 in1021.0 mb 0.03 in0.8 mm 0.00 in0.0 mm 0.38 in9.7 mm
07:45 AM 59.9°F15.5°C 52.0°F11.1°C 76% 2.8 mph N4.5 kmh N 8.0 mph12.9 kmh 30.15 in1021.0 mb 0.00 in0.0 mm 0.00 in0.0 mm 0.38 in9.7 mm
07:50 AM 59.8°F15.4°C 52.0°F11.1°C 76% 3.2 mph N5.1 kmh N 10.0 mph16.1 kmh 30.16 in1021.3 mb 0.00 in0.0 mm 0.00 in0.0 mm 0.38 in9.7 mm
07:55 AM 59.6°F15.3°C 52.0°F11.1°C 76% 3.6 mph N5.8 kmh N 10.0 mph16.1 kmh 30.16 in1021.3 mb 0.00 in0.0 mm 0.00 in0.0 mm 0.38 in9.7 mm
08:00 AM 59.6°F15.3°C 52.0°F11.1°C 76% 3.2 mph N5.1 kmh N 7.0 mph11.3 kmh 30.16 in1021.3 mb 0.00 in0.0 mm 0.00 in0.0 mm 0.38 in9.7 mm
08:05 AM 59.7°F15.4°C 52.0°F11.1°C 76% 2.5 mph N4.0 kmh N 6.0 mph9.7 kmh 30.16 in1021.3 mb 0.00 in0.0 mm 0.00 in0.0 mm 0.38 in9.7 mm
08:10 AM 59.6°F15.3°C 52.0°F11.1°C 76% 2.6 mph N4.2 kmh N 7.0 mph11.3 kmh 30.16 in1021.3 mb 0.00 in0.0 mm 0.00 in0.0 mm 0.38 in9.7 mm
08:15 AM 59.6°F15.3°C 52.0°F11.1°C 76% 3.0 mph N4.8 kmh N 8.0 mph12.9 kmh 30.16 in1021.3 mb 0.00 in0.0 mm 0.00 in0.0 mm 0.38 in9.7 mm
08:20 AM 59.5°F15.3°C 52.0°F11.1°C 76% 3.0 mph N4.8 kmh N 8.0 mph12.9 kmh 30.16 in1021.3 mb 0.00 in0.0 mm 0.00 in0.0 mm 0.38 in9.7 mm
08:25 AM 59.6°F15.3°C 52.0°F11.1°C 76% 2.9 mph N4.7 kmh N 7.0 mph11.3 kmh 30.16 in1021.3 mb 0.00 in0.0 mm 0.00 in0.0 mm 0.38 in9.7 mm
08:30 AM 59.7°F15.4°C 52.0°F11.1°C 76% 2.5 mph N4.0 kmh N 6.0 mph9.7 kmh 30.16 in1021.3 mb 0.00 in0.0 mm 0.00 in0.0 mm 0.38 in9.7 mm
08:35 AM 59.5°F15.3°C 52.0°F11.1°C 76% 3.2 mph N5.1 kmh N 9.0 mph14.5 kmh 30.17 in1021.7 mb 0.00 in0.0 mm 0.00 in0.0 mm 0.38 in9.7 mm
08:40 AM 59.5°F15.3°C 52.0°F11.1°C 76% 3.6 mph N5.8 kmh N 8.0 mph12.9 kmh 30.17 in1021.7 mb 0.00 in0.0 mm 0.00 in0.0 mm 0.38 in9.7 mm
08:45 AM 59.2°F15.1°C 52.0°F11.1°C 76% 3.7 mph N6.0 kmh N 11.0 mph17.7 kmh 30.17 in1021.7 mb 0.00 in0.0 mm 0.00 in0.0 mm 0.38 in9.7 mm
08:50 AM 59.0°F15.0°C 51.0°F10.6°C 76% 4.1 mph N6.6 kmh N 11.0 mph17.7 kmh 30.17 in1021.7 mb 0.00 in0.0 mm 0.00 in0.0 mm 0.38 in9.7 mm
08:55 AM 58.9°F14.9°C 51.0°F10.6°C 76% 4.0 mph N6.4 kmh N 8.0 mph12.9 kmh 30.17 in1021.7 mb 0.00 in0.0 mm 0.00 in0.0 mm 0.38 in9.7 mm
09:00 AM 59.0°F15.0°C 51.0°F10.6°C 76% 3.4 mph N5.5 kmh N 7.0 mph11.3 kmh 30.18 in1022.0 mb 0.00 in0.0 mm 0.00 in0.0 mm 0.38 in9.7 mm
09:05 AM 59.1°F15.1°C 52.0°F11.1°C 76% 3.1 mph N5.0 kmh N 10.0 mph16.1 kmh 30.18 in1022.0 mb 0.00 in0.0 mm 0.00 in0.0 mm 0.38 in9.7 mm
09:10 AM 59.0°F15.0°C 51.0°F10.6°C 76% 3.6 mph N5.8 kmh N 11.0 mph17.7 kmh 30.18 in1022.0 mb 0.00 in0.0 mm 0.00 in0.0 mm 0.38 in9.7 mm
09:15 AM 59.1°F15.1°C 52.0°F11.1°C 76% 3.5 mph N5.6 kmh N 7.0 mph11.3 kmh 30.18 in1022.0 mb 0.00 in0.0 mm 0.00 in0.0 mm 0.38 in9.7 mm
09:20 AM 59.2°F15.1°C 52.0°F11.1°C 76% 3.2 mph N5.1 kmh N 8.0 mph12.9 kmh 30.17 in1021.7 mb 0.00 in0.0 mm 0.00 in0.0 mm 0.38 in9.7 mm
09:25 AM 59.1°F15.1°C 51.0°F10.6°C 75% 3.8 mph N6.1 kmh N 8.0 mph12.9 kmh 30.17 in1021.7 mb 0.00 in0.0 mm 0.00 in0.0 mm 0.38 in9.7 mm
09:30 AM 59.2°F15.1°C 52.0°F11.1°C 76% 3.9 mph N6.3 kmh N 8.0 mph12.9 kmh 30.17 in1021.7 mb 0.00 in0.0 mm 0.00 in0.0 mm 0.38 in9.7 mm
09:35 AM 58.9°F14.9°C 51.0°F10.6°C 75% 4.0 mph N6.4 kmh N 10.0 mph16.1 kmh 30.17 in1021.7 mb 0.00 in0.0 mm 0.00 in0.0 mm 0.38 in9.7 mm
09:40 AM 58.9°F14.9°C 51.0°F10.6°C 76% 4.4 mph N7.1 kmh N 10.0 mph16.1 kmh 30.17 in1021.7 mb 0.00 in0.0 mm 0.00 in0.0 mm 0.38 in9.7 mm
09:45 AM 58.8°F14.9°C 51.0°F10.6°C 76% 4.1 mph N6.6 kmh N 11.0 mph17.7 kmh 30.18 in1022.0 mb 0.00 in0.0 mm 0.00 in0.0 mm 0.38 in9.7 mm
09:50 AM 58.7°F14.8°C 51.0°F10.6°C 76% 4.6 mph N7.4 kmh N 12.0 mph19.3 kmh 30.18 in1022.0 mb 0.00 in0.0 mm 0.00 in0.0 mm 0.38 in9.7 mm
09:55 AM 58.9°F14.9°C 51.0°F10.6°C 76% 4.4 mph N7.1 kmh N 12.0 mph19.3 kmh 30.18 in1022.0 mb 0.00 in0.0 mm 0.00 in0.0 mm 0.38 in9.7 mm
10:00 AM 59.1°F15.1°C 51.0°F10.6°C 75% 3.3 mph N5.3 kmh N 8.0 mph12.9 kmh 30.18 in1022.0 mb 0.00 in0.0 mm 0.00 in0.0 mm 0.38 in9.7 mm
10:05 AM 59.1°F15.1°C 51.0°F10.6°C 75% 3.5 mph N5.6 kmh N 9.0 mph14.5 kmh 30.18 in1022.0 mb 0.00 in0.0 mm 0.00 in0.0 mm 0.38 in9.7 mm
10:10 AM 59.1°F15.1°C 51.0°F10.6°C 75% 4.4 mph N7.1 kmh N 9.0 mph14.5 kmh 30.18 in1022.0 mb 0.00 in0.0 mm 0.00 in0.0 mm 0.38 in9.7 mm
10:15 AM 59.3°F15.2°C 51.0°F10.6°C 75% 4.2 mph N6.8 kmh N 8.0 mph12.9 kmh 30.18 in1022.0 mb 0.00 in0.0 mm 0.00 in0.0 mm 0.38 in9.7 mm
10:20 AM 59.3°F15.2°C 51.0°F10.6°C 75% 3.7 mph N6.0 kmh N 8.0 mph12.9 kmh 30.19 in1022.4 mb 0.00 in0.0 mm 0.00 in0.0 mm 0.38 in9.7 mm
10:25 AM 59.3°F15.2°C 51.0°F10.6°C 75% 3.6 mph N5.8 kmh N 8.0 mph12.9 kmh 30.19 in1022.4 mb 0.00 in0.0 mm 0.00 in0.0 mm 0.38 in9.7 mm
10:30 AM 59.3°F15.2°C 51.0°F10.6°C 75% 3.3 mph N5.3 kmh N 8.0 mph12.9 kmh 30.20 in1022.7 mb 0.00 in0.0 mm 0.00 in0.0 mm 0.38 in9.7 mm
10:35 AM 59.3°F15.2°C 51.0°F10.6°C 75% 3.6 mph N5.8 kmh N 8.0 mph12.9 kmh 30.19 in1022.4 mb 0.00 in0.0 mm 0.00 in0.0 mm 0.38 in9.7 mm
10:40 AM 59.6°F15.3°C 52.0°F11.1°C 75% 4.1 mph N6.6 kmh N 8.0 mph12.9 kmh 30.19 in1022.4 mb 0.00 in0.0 mm 0.00 in0.0 mm 0.38 in9.7 mm
10:45 AM 59.4°F15.2°C 51.0°F10.6°C 75% 4.1 mph N6.6 kmh N 8.0 mph12.9 kmh 30.19 in1022.4 mb 0.00 in0.0 mm 0.00 in0.0 mm 0.38 in9.7 mm
10:50 AM 59.5°F15.3°C 52.0°F11.1°C 75% 4.1 mph N6.6 kmh N 9.0 mph14.5 kmh 30.20 in1022.7 mb 0.00 in0.0 mm 0.00 in0.0 mm 0.38 in9.7 mm
10:55 AM 59.6°F15.3°C 52.0°F11.1°C 75% 3.8 mph N6.1 kmh N 9.0 mph14.5 kmh 30.20 in1022.7 mb 0.00 in0.0 mm 0.00 in0.0 mm 0.38 in9.7 mm
11:00 AM 59.8°F15.4°C 52.0°F11.1°C 75% 3.3 mph N5.3 kmh N 9.0 mph14.5 kmh 30.20 in1022.7 mb 0.00 in0.0 mm 0.00 in0.0 mm 0.38 in9.7 mm
11:05 AM 59.6°F15.3°C 52.0°F11.1°C 75% 4.3 mph N6.9 kmh N 11.0 mph17.7 kmh 30.20 in1022.7 mb 0.00 in0.0 mm 0.00 in0.0 mm 0.38 in9.7 mm
11:10 AM 60.0°F15.6°C 52.0°F11.1°C 75% 4.6 mph N7.4 kmh N 10.0 mph16.1 kmh 30.20 in1022.7 mb 0.00 in0.0 mm 0.00 in0.0 mm 0.38 in9.7 mm
11:15 AM 59.9°F15.5°C 52.0°F11.1°C 75% 3.5 mph N5.6 kmh N 8.0 mph12.9 kmh 30.20 in1022.7 mb 0.00 in0.0 mm 0.00 in0.0 mm 0.38 in9.7 mm
11:20 AM 60.1°F15.6°C 52.0°F11.1°C 75% 3.0 mph N4.8 kmh N 6.0 mph9.7 kmh 30.20 in1022.7 mb 0.00 in0.0 mm 0.00 in0.0 mm 0.38 in9.7 mm
11:25 AM 60.4°F15.8°C 52.0°F11.1°C 75% 2.9 mph N4.7 kmh N 7.0 mph11.3 kmh 30.20 in1022.7 mb 0.00 in0.0 mm 0.00 in0.0 mm 0.38 in9.7 mm
11:30 AM 60.5°F15.8°C 53.0°F11.7°C 75% 3.4 mph N5.5 kmh N 10.0 mph16.1 kmh 30.20 in1022.7 mb 0.00 in0.0 mm 0.00 in0.0 mm 0.38 in9.7 mm
11:35 AM 60.6°F15.9°C 52.0°F11.1°C 74% 4.0 mph N6.4 kmh N 10.0 mph16.1 kmh 30.20 in1022.7 mb 0.00 in0.0 mm 0.00 in0.0 mm 0.38 in9.7 mm
11:40 AM 60.4°F15.8°C 52.0°F11.1°C 74% 4.5 mph N7.2 kmh N 10.0 mph16.1 kmh 30.20 in1022.7 mb 0.00 in0.0 mm 0.00 in0.0 mm 0.38 in9.7 mm
11:45 AM 60.4°F15.8°C 52.0°F11.1°C 74% 4.8 mph N7.7 kmh N 10.0 mph16.1 kmh 30.21 in1023.0 mb 0.00 in0.0 mm 0.00 in0.0 mm 0.38 in9.7 mm
11:50 AM 60.4°F15.8°C 52.0°F11.1°C 74% 4.8 mph N7.7 kmh N 9.0 mph14.5 kmh 30.20 in1022.7 mb 0.00 in0.0 mm 0.00 in0.0 mm 0.38 in9.7 mm
11:55 AM 60.6°F15.9°C 52.0°F11.1°C 74% 4.6 mph N7.4 kmh N 10.0 mph16.1 kmh 30.20 in1022.7 mb 0.00 in0.0 mm 0.00 in0.0 mm 0.38 in9.7 mm
12:00 PM 60.4°F15.8°C 52.0°F11.1°C 74% 4.5 mph N7.2 kmh N 11.0 mph17.7 kmh 30.20 in1022.7 mb 0.00 in0.0 mm 0.00 in0.0 mm 0.38 in9.7 mm
12:05 PM 60.2°F15.7°C 52.0°F11.1°C 74% 4.8 mph N7.7 kmh N 11.0 mph17.7 kmh 30.20 in1022.7 mb 0.00 in0.0 mm 0.00 in0.0 mm 0.38 in9.7 mm
12:10 PM 60.4°F15.8°C 52.0°F11.1°C 74% 4.4 mph N7.1 kmh N 10.0 mph16.1 kmh 30.20 in1022.7 mb 0.00 in0.0 mm 0.00 in0.0 mm 0.38 in9.7 mm
12:15 PM 61.0°F16.1°C 53.0°F11.7°C 74% 3.8 mph N6.1 kmh N 9.0 mph14.5 kmh 30.20 in1022.7 mb 0.00 in0.0 mm 0.00 in0.0 mm 0.38 in9.7 mm
12:20 PM 60.7°F15.9°C 52.0°F11.1°C 73% 4.2 mph N6.8 kmh N 10.0 mph16.1 kmh 30.21 in1023.0 mb 0.00 in0.0 mm 0.00 in0.0 mm 0.38 in9.7 mm
12:25 PM 60.8°F16.0°C 52.0°F11.1°C 73% 4.4 mph N7.1 kmh N 10.0 mph16.1 kmh 30.21 in1023.0 mb 0.00 in0.0 mm 0.00 in0.0 mm 0.38 in9.7 mm
12:30 PM 61.9°F16.6°C 53.0°F11.7°C 72% 4.2 mph N6.8 kmh N 10.0 mph16.1 kmh 30.21 in1023.0 mb 0.00 in0.0 mm 0.00 in0.0 mm 0.38 in9.7 mm
12:35 PM 62.3°F16.8°C 53.0°F11.7°C 72% 3.4 mph N5.5 kmh N 10.0 mph16.1 kmh 30.21 in1023.0 mb 0.00 in0.0 mm 0.00 in0.0 mm 0.38 in9.7 mm
12:40 PM 61.6°F16.4°C 52.0°F11.1°C 71% 3.3 mph N5.3 kmh N 8.0 mph12.9 kmh 30.21 in1023.0 mb 0.00 in0.0 mm 0.00 in0.0 mm 0.38 in9.7 mm
12:45 PM 61.6°F16.4°C 52.0°F11.1°C 72% 3.6 mph N5.8 kmh N 8.0 mph12.9 kmh 30.22 in1023.4 mb 0.00 in0.0 mm 0.00 in0.0 mm 0.38 in9.7 mm
12:50 PM 61.9°F16.6°C 52.0°F11.1°C 71% 3.4 mph N5.5 kmh N 8.0 mph12.9 kmh 30.22 in1023.4 mb 0.00 in0.0 mm 0.00 in0.0 mm 0.38 in9.7 mm
12:55 PM 61.7°F16.5°C 52.0°F11.1°C 71% 4.1 mph N6.6 kmh N 9.0 mph14.5 kmh 30.22 in1023.4 mb 0.00 in0.0 mm 0.00 in0.0 mm 0.38 in9.7 mm
01:00 PM 61.5°F16.4°C 52.0°F11.1°C 71% 4.0 mph N6.4 kmh N 9.0 mph14.5 kmh 30.22 in1023.4 mb 0.00 in0.0 mm 0.00 in0.0 mm 0.38 in9.7 mm
01:05 PM 61.2°F16.2°C 52.0°F11.1°C 71% 3.8 mph N6.1 kmh N 9.0 mph14.5 kmh 30.22 in1023.4 mb 0.00 in0.0 mm 0.00 in0.0 mm 0.38 in9.7 mm
01:10 PM 61.3°F16.3°C 52.0°F11.1°C 71% 3.6 mph N5.8 kmh N 7.0 mph11.3 kmh 30.22 in1023.4 mb 0.00 in0.0 mm 0.00 in0.0 mm 0.38 in9.7 mm
01:15 PM 61.2°F16.2°C 52.0°F11.1°C 72% 3.5 mph N5.6 kmh N 7.0 mph11.3 kmh 30.21 in1023.0 mb 0.00 in0.0 mm 0.00 in0.0 mm 0.38 in9.7 mm
01:20 PM 61.8°F16.6°C 53.0°F11.7°C 72% 3.2 mph N5.1 kmh N 7.0 mph11.3 kmh 30.21 in1023.0 mb 0.00 in0.0 mm 0.00 in0.0 mm 0.38 in9.7 mm
01:25 PM 62.5°F16.9°C 53.0°F11.7°C 71% 3.2 mph N5.1 kmh N 10.0 mph16.1 kmh 30.21 in1023.0 mb 0.00 in0.0 mm 0.00 in0.0 mm 0.38 in9.7 mm
01:30 PM 63.2°F17.3°C 53.0°F11.7°C 69% 4.1 mph SE6.6 kmh SE 12.0 mph19.3 kmh 30.21 in1023.0 mb 0.00 in0.0 mm 0.00 in0.0 mm 0.38 in9.7 mm
01:35 PM 63.3°F17.4°C 53.0°F11.7°C 69% 4.0 mph NE6.4 kmh NE 12.0 mph19.3 kmh 30.21 in1023.0 mb 0.00 in0.0 mm 0.00 in0.0 mm 0.38 in9.7 mm
01:40 PM 63.4°F17.4°C 53.0°F11.7°C 68% 3.3 mph ENE5.3 kmh ENE 8.0 mph12.9 kmh 30.20 in1022.7 mb 0.00 in0.0 mm 0.00 in0.0 mm 0.38 in9.7 mm
01:45 PM 63.5°F17.5°C 53.0°F11.7°C 68% 3.2 mph ENE5.1 kmh ENE 8.0 mph12.9 kmh 30.21 in1023.0 mb 0.00 in0.0 mm 0.00 in0.0 mm 0.38 in9.7 mm
01:50 PM 63.4°F17.4°C 53.0°F11.7°C 68% 3.7 mph N6.0 kmh N 8.0 mph12.9 kmh 30.21 in1023.0 mb 0.00 in0.0 mm 0.00 in0.0 mm 0.38 in9.7 mm
01:55 PM 63.3°F17.4°C 53.0°F11.7°C 68% 3.9 mph N6.3 kmh N 8.0 mph12.9 kmh 30.21 in1023.0 mb 0.00 in0.0 mm 0.00 in0.0 mm 0.38 in9.7 mm
02:00 PM 62.9°F17.2°C 52.0°F11.1°C 68% 4.1 mph NE6.6 kmh NE 8.0 mph12.9 kmh 30.21 in1023.0 mb 0.00 in0.0 mm 0.00 in0.0 mm 0.38 in9.7 mm
02:05 PM 63.3°F17.4°C 53.0°F11.7°C 69% 4.2 mph NE6.8 kmh NE 11.0 mph17.7 kmh 30.21 in1023.0 mb 0.00 in0.0 mm 0.00 in0.0 mm 0.38 in9.7 mm
02:10 PM 63.2°F17.3°C 52.0°F11.1°C 68% 4.3 mph N6.9 kmh N 11.0 mph17.7 kmh 30.20 in1022.7 mb 0.00 in0.0 mm 0.00 in0.0 mm 0.38 in9.7 mm
02:15 PM 63.2°F17.3°C 52.0°F11.1°C 68% 4.3 mph NE6.9 kmh NE 10.0 mph16.1 kmh 30.20 in1022.7 mb 0.00 in0.0 mm 0.00 in0.0 mm 0.38 in9.7 mm
02:20 PM 63.7°F17.6°C 53.0°F11.7°C 68% 4.1 mph ENE6.6 kmh ENE 8.0 mph12.9 kmh 30.20 in1022.7 mb 0.00 in0.0 mm 0.00 in0.0 mm 0.38 in9.7 mm
02:25 PM 63.9°F17.7°C 53.0°F11.7°C 67% 3.5 mph NE5.6 kmh NE 8.0 mph12.9 kmh 30.20 in1022.7 mb 0.00 in0.0 mm 0.00 in0.0 mm 0.38 in9.7 mm
02:30 PM 64.5°F18.1°C 53.0°F11.7°C 66% 3.5 mph NE5.6 kmh NE 8.0 mph12.9 kmh 30.20 in1022.7 mb 0.00 in0.0 mm 0.00 in0.0 mm 0.38 in9.7 mm
02:35 PM 64.7°F18.2°C 53.0°F11.7°C 67% 3.6 mph NE5.8 kmh NE 8.0 mph12.9 kmh 30.20 in1022.7 mb 0.00 in0.0 mm 0.00 in0.0 mm 0.38 in9.7 mm
02:40 PM 64.8°F18.2°C 53.0°F11.7°C 66% 3.5 mph ENE5.6 kmh ENE 9.0 mph14.5 kmh 30.20 in1022.7 mb 0.00 in0.0 mm 0.00 in0.0 mm 0.38 in9.7 mm
02:45 PM 64.5°F18.1°C 53.0°F11.7°C 66% 4.6 mph ENE7.4 kmh ENE 10.0 mph16.1 kmh 30.20 in1022.7 mb 0.00 in0.0 mm 0.00 in0.0 mm 0.38 in9.7 mm
02:50 PM 64.7°F18.2°C 53.0°F11.7°C 66% 4.6 mph NE7.4 kmh NE 10.0 mph16.1 kmh 30.20 in1022.7 mb 0.00 in0.0 mm 0.00 in0.0 mm 0.38 in9.7 mm
02:55 PM 65.0°F18.3°C 53.0°F11.7°C 66% 4.0 mph NNE6.4 kmh NNE 8.0 mph12.9 kmh 30.21 in1023.0 mb 0.00 in0.0 mm 0.00 in0.0 mm 0.38 in9.7 mm
03:00 PM 65.3°F18.5°C 53.0°F11.7°C 65% 3.6 mph E5.8 kmh E 8.0 mph12.9 kmh 30.21 in1023.0 mb 0.00 in0.0 mm 0.00 in0.0 mm 0.38 in9.7 mm
03:05 PM 65.5°F18.6°C 54.0°F12.2°C 67% 3.1 mph NE5.0 kmh NE 8.0 mph12.9 kmh 30.21 in1023.0 mb 0.00 in0.0 mm 0.00 in0.0 mm 0.38 in9.7 mm
03:10 PM 64.8°F18.2°C 53.0°F11.7°C 66% 3.3 mph NE5.3 kmh NE 8.0 mph12.9 kmh 30.21 in1023.0 mb 0.00 in0.0 mm 0.00 in0.0 mm 0.38 in9.7 mm
03:15 PM 64.7°F18.2°C 53.0°F11.7°C 65% 3.5 mph NE5.6 kmh NE 9.0 mph14.5 kmh 30.22 in1023.4 mb 0.00 in0.0 mm 0.00 in0.0 mm 0.38 in9.7 mm
03:20 PM 64.3°F17.9°C 53.0°F11.7°C 66% 3.9 mph ENE6.3 kmh ENE 9.0 mph14.5 kmh 30.22 in1023.4 mb 0.00 in0.0 mm 0.00 in0.0 mm 0.38 in9.7 mm
03:25 PM 64.4°F18.0°C 53.0°F11.7°C 66% 3.8 mph N6.1 kmh N 8.0 mph12.9 kmh 30.22 in1023.4 mb 0.00 in0.0 mm 0.00 in0.0 mm 0.38 in9.7 mm
03:30 PM 64.2°F17.9°C 53.0°F11.7°C 66% 3.3 mph N5.3 kmh N 8.0 mph12.9 kmh 30.22 in1023.4 mb 0.00 in0.0 mm 0.00 in0.0 mm 0.38 in9.7 mm
03:35 PM 64.1°F17.8°C 52.0°F11.1°C 66% 3.0 mph NE4.8 kmh NE 8.0 mph12.9 kmh 30.22 in1023.4 mb 0.00 in0.0 mm 0.00 in0.0 mm 0.38 in9.7 mm
03:40 PM 63.9°F17.7°C 52.0°F11.1°C 66% 2.8 mph N4.5 kmh N 7.0 mph11.3 kmh 30.22 in1023.4 mb 0.00 in0.0 mm 0.00 in0.0 mm 0.38 in9.7 mm
03:45 PM 64.0°F17.8°C 53.0°F11.7°C 67% 2.5 mph N4.0 kmh N 6.0 mph9.7 kmh 30.22 in1023.4 mb 0.00 in0.0 mm 0.00 in0.0 mm 0.38 in9.7 mm
03:50 PM 63.9°F17.7°C 53.0°F11.7°C 67% 2.3 mph N3.7 kmh N 6.0 mph9.7 kmh 30.22 in1023.4 mb 0.00 in0.0 mm 0.00 in0.0 mm 0.38 in9.7 mm
03:55 PM 63.9°F17.7°C 53.0°F11.7°C 67% 3.4 mph NE5.5 kmh NE 9.0 mph14.5 kmh 30.22 in1023.4 mb 0.00 in0.0 mm 0.00 in0.0 mm 0.38 in9.7 mm
04:00 PM 63.7°F17.6°C 52.0°F11.1°C 67% 4.0 mph NE6.4 kmh NE 9.0 mph14.5 kmh 30.22 in1023.4 mb 0.00 in0.0 mm 0.00 in0.0 mm 0.38 in9.7 mm
04:05 PM 63.6°F17.6°C 52.0°F11.1°C 66% 3.8 mph ENE6.1 kmh ENE 9.0 mph14.5 kmh 30.22 in1023.4 mb 0.00 in0.0 mm 0.00 in0.0 mm 0.38 in9.7 mm
04:10 PM 63.5°F17.5°C 52.0°F11.1°C 66% 3.6 mph NE5.8 kmh NE 10.0 mph16.1 kmh 30.22 in1023.4 mb 0.00 in0.0 mm 0.00 in0.0 mm 0.38 in9.7 mm
04:15 PM 63.6°F17.6°C 52.0°F11.1°C 66% 2.8 mph NE4.5 kmh NE 10.0 mph16.1 kmh 30.22 in1023.4 mb 0.00 in0.0 mm 0.00 in0.0 mm 0.38 in9.7 mm
04:20 PM 63.7°F17.6°C 52.0°F11.1°C 67% 2.4 mph NE3.9 kmh NE 6.0 mph9.7 kmh 30.23 in1023.7 mb 0.00 in0.0 mm 0.00 in0.0 mm 0.38 in9.7 mm
04:25 PM 63.7°F17.6°C 52.0°F11.1°C 67% 2.9 mph NE4.7 kmh NE 7.0 mph11.3 kmh 30.23 in1023.7 mb 0.00 in0.0 mm 0.00 in0.0 mm 0.38 in9.7 mm
04:30 PM 63.6°F17.6°C 52.0°F11.1°C 67% 3.7 mph NE6.0 kmh NE 9.0 mph14.5 kmh 30.23 in1023.7 mb 0.00 in0.0 mm 0.00 in0.0 mm 0.38 in9.7 mm
04:35 PM 63.5°F17.5°C 52.0°F11.1°C 66% 4.0 mph NE6.4 kmh NE 10.0 mph16.1 kmh 30.22 in1023.4 mb 0.00 in0.0 mm 0.00 in0.0 mm 0.38 in9.7 mm
04:40 PM 63.4°F17.4°C 52.0°F11.1°C 66% 4.0 mph NE6.4 kmh NE 10.0 mph16.1 kmh 30.22 in1023.4 mb 0.00 in0.0 mm 0.00 in0.0 mm 0.38 in9.7 mm
04:45 PM 63.4°F17.4°C 52.0°F11.1°C 66% 4.2 mph NE6.8 kmh NE 8.0 mph12.9 kmh 30.22 in1023.4 mb 0.00 in0.0 mm 0.00 in0.0 mm 0.38 in9.7 mm
04:50 PM 63.5°F17.5°C 52.0°F11.1°C 66% 3.5 mph NE5.6 kmh NE 8.0 mph12.9 kmh 30.23 in1023.7 mb 0.00 in0.0 mm 0.00 in0.0 mm 0.38 in9.7 mm
04:55 PM 63.3°F17.4°C 52.0°F11.1°C 66% 3.8 mph NE6.1 kmh NE 8.0 mph12.9 kmh 30.22 in1023.4 mb 0.00 in0.0 mm 0.00 in0.0 mm 0.38 in9.7 mm
05:00 PM 63.2°F17.3°C 52.0°F11.1°C 67% 4.3 mph NE6.9 kmh NE 10.0 mph16.1 kmh 30.22 in1023.4 mb 0.00 in0.0 mm 0.00 in0.0 mm 0.38 in9.7 mm
05:05 PM 63.1°F17.3°C 51.0°F10.6°C 66% 4.5 mph ENE7.2 kmh ENE 10.0 mph16.1 kmh 30.22 in1023.4 mb 0.00 in0.0 mm 0.00 in0.0 mm 0.38 in9.7 mm
05:10 PM 63.1°F17.3°C 51.0°F10.6°C 66% 4.5 mph ENE7.2 kmh ENE 9.0 mph14.5 kmh 30.22 in1023.4 mb 0.00 in0.0 mm 0.00 in0.0 mm 0.38 in9.7 mm
05:15 PM 63.0°F17.2°C 51.0°F10.6°C 66% 3.7 mph N6.0 kmh N 9.0 mph14.5 kmh 30.22 in1023.4 mb 0.00 in0.0 mm 0.00 in0.0 mm 0.38 in9.7 mm
05:20 PM 62.9°F17.2°C 51.0°F10.6°C 66% 3.5 mph NE5.6 kmh NE 9.0 mph14.5 kmh 30.23 in1023.7 mb 0.00 in0.0 mm 0.00 in0.0 mm 0.38 in9.7 mm
05:25 PM 62.9°F17.2°C 51.0°F10.6°C 66% 3.2 mph NE5.1 kmh NE 9.0 mph14.5 kmh 30.23 in1023.7 mb 0.00 in0.0 mm 0.00 in0.0 mm 0.38 in9.7 mm
05:30 PM 62.9°F17.2°C 51.0°F10.6°C 66% 2.8 mph NE4.5 kmh NE 6.0 mph9.7 kmh 30.22 in1023.4 mb 0.00 in0.0 mm 0.00 in0.0 mm 0.38 in9.7 mm
05:35 PM 62.8°F17.1°C 51.0°F10.6°C 66% 2.9 mph ENE4.7 kmh ENE 8.0 mph12.9 kmh 30.23 in1023.7 mb 0.00 in0.0 mm 0.00 in0.0 mm 0.38 in9.7 mm
05:40 PM 62.7°F17.1°C 51.0°F10.6°C 66% 3.3 mph NE5.3 kmh NE 8.0 mph12.9 kmh 30.23 in1023.7 mb 0.00 in0.0 mm 0.00 in0.0 mm 0.38 in9.7 mm
05:45 PM 62.5°F16.9°C 51.0°F10.6°C 66% 3.0 mph NE4.8 kmh NE 8.0 mph12.9 kmh 30.23 in1023.7 mb 0.00 in0.0 mm 0.00 in0.0 mm 0.38 in9.7 mm
05:50 PM 62.2°F16.8°C 51.0°F10.6°C 66% 2.4 mph NE3.9 kmh NE 6.0 mph9.7 kmh 30.22 in1023.4 mb 0.00 in0.0 mm 0.00 in0.0 mm 0.38 in9.7 mm
05:55 PM 62.1°F16.7°C 51.0°F10.6°C 67% 2.5 mph N4.0 kmh N 6.0 mph9.7 kmh 30.22 in1023.4 mb 0.00 in0.0 mm 0.00 in0.0 mm 0.38 in9.7 mm
06:00 PM 62.0°F16.7°C 51.0°F10.6°C 67% 3.0 mph NE4.8 kmh NE 9.0 mph14.5 kmh 30.23 in1023.7 mb 0.00 in0.0 mm 0.00 in0.0 mm 0.38 in9.7 mm
06:05 PM 62.1°F16.7°C 51.0°F10.6°C 66% 3.4 mph NE5.5 kmh NE 9.0 mph14.5 kmh 30.23 in1023.7 mb 0.00 in0.0 mm 0.00 in0.0 mm 0.38 in9.7 mm
06:10 PM 62.1°F16.7°C 51.0°F10.6°C 66% 3.1 mph ENE5.0 kmh ENE 7.0 mph11.3 kmh 30.22 in1023.4 mb 0.00 in0.0 mm 0.00 in0.0 mm 0.38 in9.7 mm
06:15 PM 62.0°F16.7°C 50.0°F10.0°C 66% 2.8 mph ENE4.5 kmh ENE 8.0 mph12.9 kmh 30.23 in1023.7 mb 0.00 in0.0 mm 0.00 in0.0 mm 0.38 in9.7 mm
06:20 PM 62.0°F16.7°C 50.0°F10.0°C 65% 3.4 mph NE5.5 kmh NE 8.0 mph12.9 kmh 30.23 in1023.7 mb 0.00 in0.0 mm 0.00 in0.0 mm 0.38 in9.7 mm
06:25 PM 61.9°F16.6°C 50.0°F10.0°C 65% 3.1 mph E5.0 kmh E 8.0 mph12.9 kmh 30.23 in1023.7 mb 0.00 in0.0 mm 0.00 in0.0 mm 0.38 in9.7 mm
06:30 PM 61.6°F16.4°C 50.0°F10.0°C 66% 2.1 mph NE3.4 kmh NE 6.0 mph9.7 kmh 30.23 in1023.7 mb 0.00 in0.0 mm 0.00 in0.0 mm 0.38 in9.7 mm
06:35 PM 61.4°F16.3°C 50.0°F10.0°C 66% 1.8 mph NE2.9 kmh NE 6.0 mph9.7 kmh 30.23 in1023.7 mb 0.00 in0.0 mm 0.00 in0.0 mm 0.38 in9.7 mm
06:40 PM 61.2°F16.2°C 49.0°F9.4°C 65% 1.6 mph NE2.6 kmh NE 6.0 mph9.7 kmh 30.23 in1023.7 mb 0.00 in0.0 mm 0.00 in0.0 mm 0.38 in9.7 mm
06:45 PM 61.1°F16.2°C 49.0°F9.4°C 65% 1.7 mph N2.7 kmh N 7.0 mph11.3 kmh 30.23 in1023.7 mb 0.00 in0.0 mm 0.00 in0.0 mm 0.38 in9.7 mm
06:50 PM 61.1°F16.2°C 49.0°F9.4°C 65% 2.9 mph NE4.7 kmh NE 7.0 mph11.3 kmh 30.23 in1023.7 mb 0.00 in0.0 mm 0.00 in0.0 mm 0.38 in9.7 mm
06:55 PM 61.0°F16.1°C 49.0°F9.4°C 64% 3.9 mph NE6.3 kmh NE 14.0 mph22.5 kmh 30.23 in1023.7 mb 0.00 in0.0 mm 0.00 in0.0 mm 0.38 in9.7 mm
07:00 PM 61.0°F16.1°C 48.0°F8.9°C 63% 4.6 mph NE7.4 kmh NE 14.0 mph22.5 kmh 30.24 in1024.0 mb 0.00 in0.0 mm 0.00 in0.0 mm 0.38 in9.7 mm
07:05 PM 60.8°F16.0°C 48.0°F8.9°C 63% 4.4 mph NE7.1 kmh NE 11.0 mph17.7 kmh 30.24 in1024.0 mb 0.00 in0.0 mm 0.00 in0.0 mm 0.38 in9.7 mm
07:10 PM 60.7°F15.9°C 48.0°F8.9°C 63% 3.8 mph NE6.1 kmh NE 11.0 mph17.7 kmh 30.24 in1024.0 mb 0.00 in0.0 mm 0.00 in0.0 mm 0.38 in9.7 mm
07:15 PM 60.5°F15.8°C 48.0°F8.9°C 63% 3.7 mph NE6.0 kmh NE 9.0 mph14.5 kmh 30.24 in1024.0 mb 0.00 in0.0 mm 0.00 in0.0 mm 0.38 in9.7 mm
07:20 PM 60.4°F15.8°C 48.0°F8.9°C 63% 3.7 mph NE6.0 kmh NE 9.0 mph14.5 kmh 30.24 in1024.0 mb 0.00 in0.0 mm 0.00 in0.0 mm 0.38 in9.7 mm
07:25 PM 60.1°F15.6°C 47.0°F8.3°C 63% 3.2 mph NE5.1 kmh NE 8.0 mph12.9 kmh 30.24 in1024.0 mb 0.00 in0.0 mm 0.00 in0.0 mm 0.38 in9.7 mm
07:30 PM 59.9°F15.5°C 48.0°F8.9°C 64% 2.6 mph NE4.2 kmh NE 6.0 mph9.7 kmh 30.24 in1024.0 mb 0.00 in0.0 mm 0.00 in0.0 mm 0.38 in9.7 mm
07:35 PM 59.8°F15.4°C 47.0°F8.3°C 64% 2.9 mph NE4.7 kmh NE 8.0 mph12.9 kmh 30.24 in1024.0 mb 0.00 in0.0 mm 0.00 in0.0 mm 0.38 in9.7 mm
07:40 PM 59.7°F15.4°C 47.0°F8.3°C 64% 2.8 mph NE4.5 kmh NE 8.0 mph12.9 kmh 30.24 in1024.0 mb 0.00 in0.0 mm 0.00 in0.0 mm 0.38 in9.7 mm
07:45 PM 59.4°F15.2°C 47.0°F8.3°C 64% 2.3 mph NE3.7 kmh NE 5.0 mph8.0 kmh 30.24 in1024.0 mb 0.00 in0.0 mm 0.00 in0.0 mm 0.38 in9.7 mm
07:50 PM 59.3°F15.2°C 47.0°F8.3°C 64% 1.7 mph ENE2.7 kmh ENE 5.0 mph8.0 kmh 30.24 in1024.0 mb 0.00 in0.0 mm 0.00 in0.0 mm 0.38 in9.7 mm
07:55 PM 59.2°F15.1°C 47.0°F8.3°C 64% 2.0 mph NE3.2 kmh NE 8.0 mph12.9 kmh 30.25 in1024.4 mb 0.00 in0.0 mm 0.00 in0.0 mm 0.38 in9.7 mm
08:00 PM 59.2°F15.1°C 47.0°F8.3°C 64% 2.5 mph NE4.0 kmh NE 8.0 mph12.9 kmh 30.25 in1024.4 mb 0.00 in0.0 mm 0.00 in0.0 mm 0.38 in9.7 mm
08:05 PM 59.2°F15.1°C 46.0°F7.8°C 63% 3.1 mph ENE5.0 kmh ENE 9.0 mph14.5 kmh 30.25 in1024.4 mb 0.00 in0.0 mm 0.00 in0.0 mm 0.38 in9.7 mm
08:10 PM 59.3°F15.2°C 47.0°F8.3°C 63% 3.9 mph NE6.3 kmh NE 9.0 mph14.5 kmh 30.25 in1024.4 mb 0.00 in0.0 mm 0.00 in0.0 mm 0.38 in9.7 mm
08:15 PM 59.3°F15.2°C 47.0°F8.3°C 63% 3.5 mph E5.6 kmh E 9.0 mph14.5 kmh 30.25 in1024.4 mb 0.00 in0.0 mm 0.00 in0.0 mm 0.38 in9.7 mm
08:20 PM 59.3°F15.2°C 46.0°F7.8°C 62% 3.4 mph NE5.5 kmh NE 10.0 mph16.1 kmh 30.25 in1024.4 mb 0.00 in0.0 mm 0.00 in0.0 mm 0.38 in9.7 mm
08:25 PM 59.1°F15.1°C 46.0°F7.8°C 63% 3.1 mph NE5.0 kmh NE 10.0 mph16.1 kmh 30.26 in1024.7 mb 0.00 in0.0 mm 0.00 in0.0 mm 0.38 in9.7 mm
08:30 PM 59.0°F15.0°C 46.0°F7.8°C 63% 2.2 mph ENE3.5 kmh ENE 7.0 mph11.3 kmh 30.26 in1024.7 mb 0.00 in0.0 mm 0.00 in0.0 mm 0.38 in9.7 mm
08:35 PM 58.9°F14.9°C 46.0°F7.8°C 63% 2.7 mph SE4.3 kmh SE 8.0 mph12.9 kmh 30.26 in1024.7 mb 0.00 in0.0 mm 0.00 in0.0 mm 0.38 in9.7 mm
08:40 PM 58.8°F14.9°C 46.0°F7.8°C 63% 2.7 mph NE4.3 kmh NE 8.0 mph12.9 kmh 30.26 in1024.7 mb 0.00 in0.0 mm 0.00 in0.0 mm 0.38 in9.7 mm
08:45 PM 58.6°F14.8°C 46.0°F7.8°C 63% 2.0 mph ENE3.2 kmh ENE 6.0 mph9.7 kmh 30.26 in1024.7 mb 0.00 in0.0 mm 0.00 in0.0 mm 0.38 in9.7 mm
08:50 PM 58.7°F14.8°C 46.0°F7.8°C 63% 2.1 mph NE3.4 kmh NE 7.0 mph11.3 kmh 30.26 in1024.7 mb 0.00 in0.0 mm 0.00 in0.0 mm 0.38 in9.7 mm
08:55 PM 58.4°F14.7°C 46.0°F7.8°C 63% 2.1 mph NE3.4 kmh NE 5.0 mph8.0 kmh 30.26 in1024.7 mb 0.00 in0.0 mm 0.00 in0.0 mm 0.38 in9.7 mm
09:00 PM 58.4°F14.7°C 46.0°F7.8°C 63% 2.2 mph NE3.5 kmh NE 5.0 mph8.0 kmh 30.26 in1024.7 mb 0.00 in0.0 mm 0.00 in0.0 mm 0.38 in9.7 mm
09:05 PM 58.4°F14.7°C 46.0°F7.8°C 63% 2.9 mph NE4.7 kmh NE 6.0 mph9.7 kmh 30.26 in1024.7 mb 0.00 in0.0 mm 0.00 in0.0 mm 0.38 in9.7 mm
09:10 PM 58.3°F14.6°C 46.0°F7.8°C 63% 3.3 mph NE5.3 kmh NE 7.0 mph11.3 kmh 30.26 in1024.7 mb 0.00 in0.0 mm 0.00 in0.0 mm 0.38 in9.7 mm
09:15 PM 58.3°F14.6°C 46.0°F7.8°C 63% 3.3 mph NE5.3 kmh NE 8.0 mph12.9 kmh 30.26 in1024.7 mb 0.00 in0.0 mm 0.00 in0.0 mm 0.38 in9.7 mm
09:20 PM 58.2°F14.6°C 46.0°F7.8°C 64% 2.9 mph NE4.7 kmh NE 8.0 mph12.9 kmh 30.26 in1024.7 mb 0.00 in0.0 mm 0.00 in0.0 mm 0.38 in9.7 mm
09:25 PM 58.1°F14.5°C 46.0°F7.8°C 64% 2.2 mph NE3.5 kmh NE 6.0 mph9.7 kmh 30.26 in1024.7 mb 0.00 in0.0 mm 0.00 in0.0 mm 0.38 in9.7 mm
09:30 PM 58.1°F14.5°C 45.0°F7.2°C 63% 2.8 mph NE4.5 kmh NE 7.0 mph11.3 kmh 30.26 in1024.7 mb 0.00 in0.0 mm 0.00 in0.0 mm 0.38 in9.7 mm
09:35 PM 58.1°F14.5°C 45.0°F7.2°C 63% 3.4 mph NE5.5 kmh NE 8.0 mph12.9 kmh 30.26 in1024.7 mb 0.00 in0.0 mm 0.00 in0.0 mm 0.38 in9.7 mm
09:40 PM 58.0°F14.4°C 45.0°F7.2°C 63% 3.7 mph NE6.0 kmh NE 9.0 mph14.5 kmh 30.25 in1024.4 mb 0.00 in0.0 mm 0.00 in0.0 mm 0.38 in9.7 mm
09:45 PM 58.1°F14.5°C 45.0°F7.2°C 63% 4.3 mph NE6.9 kmh NE 11.0 mph17.7 kmh 30.25 in1024.4 mb 0.00 in0.0 mm 0.00 in0.0 mm 0.38 in9.7 mm
09:50 PM 58.1°F14.5°C 45.0°F7.2°C 63% 4.7 mph E7.6 kmh E 13.0 mph20.9 kmh 30.24 in1024.0 mb 0.00 in0.0 mm 0.00 in0.0 mm 0.38 in9.7 mm
09:55 PM 58.1°F14.5°C 45.0°F7.2°C 63% 4.5 mph NE7.2 kmh NE 13.0 mph20.9 kmh 30.24 in1024.0 mb 0.00 in0.0 mm 0.00 in0.0 mm 0.38 in9.7 mm
10:00 PM 58.1°F14.5°C 45.0°F7.2°C 63% 4.6 mph NE7.4 kmh NE 11.0 mph17.7 kmh 30.25 in1024.4 mb 0.00 in0.0 mm 0.00 in0.0 mm 0.38 in9.7 mm
10:05 PM 58.0°F14.4°C 45.0°F7.2°C 63% 4.8 mph NE7.7 kmh NE 12.0 mph19.3 kmh 30.25 in1024.4 mb 0.00 in0.0 mm 0.00 in0.0 mm 0.38 in9.7 mm
10:10 PM 58.1°F14.5°C 45.0°F7.2°C 63% 4.8 mph ENE7.7 kmh ENE 12.0 mph19.3 kmh 30.25 in1024.4 mb 0.00 in0.0 mm 0.00 in0.0 mm 0.38 in9.7 mm
10:15 PM 58.2°F14.6°C 45.0°F7.2°C 62% 4.6 mph NE7.4 kmh NE 11.0 mph17.7 kmh 30.25 in1024.4 mb 0.00 in0.0 mm 0.00 in0.0 mm 0.38 in9.7 mm
10:20 PM 58.2°F14.6°C 45.0°F7.2°C 62% 4.0 mph ENE6.4 kmh ENE 14.0 mph22.5 kmh 30.25 in1024.4 mb 0.00 in0.0 mm 0.00 in0.0 mm 0.38 in9.7 mm
10:25 PM 58.2°F14.6°C 45.0°F7.2°C 62% 3.9 mph ENE6.3 kmh ENE 9.0 mph14.5 kmh 30.25 in1024.4 mb 0.00 in0.0 mm 0.00 in0.0 mm 0.38 in9.7 mm
10:30 PM 58.3°F14.6°C 45.0°F7.2°C 62% 3.6 mph SE5.8 kmh SE 9.0 mph14.5 kmh 30.25 in1024.4 mb 0.00 in0.0 mm 0.00 in0.0 mm 0.38 in9.7 mm
10:35 PM 58.3°F14.6°C 45.0°F7.2°C 62% 3.9 mph NE6.3 kmh NE 11.0 mph17.7 kmh 30.25 in1024.4 mb 0.00 in0.0 mm 0.00 in0.0 mm 0.38 in9.7 mm
10:40 PM 58.5°F14.7°C 45.0°F7.2°C 62% 4.5 mph NE7.2 kmh NE 11.0 mph17.7 kmh 30.25 in1024.4 mb 0.00 in0.0 mm 0.00 in0.0 mm 0.38 in9.7 mm
10:45 PM 58.5°F14.7°C 45.0°F7.2°C 62% 4.2 mph ENE6.8 kmh ENE 9.0 mph14.5 kmh 30.25 in1024.4 mb 0.00 in0.0 mm 0.00 in0.0 mm 0.38 in9.7 mm
10:50 PM 58.6°F14.8°C 45.0°F7.2°C 62% 3.9 mph ENE6.3 kmh ENE 11.0 mph17.7 kmh 30.25 in1024.4 mb 0.00 in0.0 mm 0.00 in0.0 mm 0.38 in9.7 mm
10:55 PM 58.6°F14.8°C 45.0°F7.2°C 62% 3.7 mph NE6.0 kmh NE 9.0 mph14.5 kmh 30.25 in1024.4 mb 0.00 in0.0 mm 0.00 in0.0 mm 0.38 in9.7 mm
11:00 PM 58.6°F14.8°C 45.0°F7.2°C 61% 3.5 mph NE5.6 kmh NE 9.0 mph14.5 kmh 30.26 in1024.7 mb 0.00 in0.0 mm 0.00 in0.0 mm 0.13 in3.3 mm
11:05 PM 58.6°F14.8°C 45.0°F7.2°C 62% 3.6 mph E5.8 kmh E 8.0 mph12.9 kmh 30.25 in1024.4 mb 0.00 in0.0 mm 0.00 in0.0 mm 0.13 in3.3 mm
11:10 PM 58.7°F14.8°C 45.0°F7.2°C 61% 4.0 mph ENE6.4 kmh ENE 11.0 mph17.7 kmh 30.25 in1024.4 mb 0.00 in0.0 mm 0.00 in0.0 mm 0.13 in3.3 mm
11:15 PM 58.6°F14.8°C 45.0°F7.2°C 62% 4.0 mph E6.4 kmh E 11.0 mph17.7 kmh 30.25 in1024.4 mb 0.00 in0.0 mm 0.00 in0.0 mm 0.13 in3.3 mm
11:20 PM 58.5°F14.7°C 45.0°F7.2°C 62% 3.6 mph NE5.8 kmh NE 10.0 mph16.1 kmh 30.25 in1024.4 mb 0.00 in0.0 mm 0.00 in0.0 mm 0.13 in3.3 mm
11:25 PM 58.6°F14.8°C 45.0°F7.2°C 62% 3.9 mph NE6.3 kmh NE 11.0 mph17.7 kmh 30.24 in1024.0 mb 0.00 in0.0 mm 0.00 in0.0 mm 0.13 in3.3 mm
11:30 PM 58.5°F14.7°C 46.0°F7.8°C 63% 4.3 mph NE6.9 kmh NE 11.0 mph17.7 kmh 30.24 in1024.0 mb 0.00 in0.0 mm 0.00 in0.0 mm 0.13 in3.3 mm
11:35 PM 58.5°F14.7°C 45.0°F7.2°C 62% 4.9 mph NE7.9 kmh NE 12.0 mph19.3 kmh 30.24 in1024.0 mb 0.00 in0.0 mm 0.00 in0.0 mm 0.13 in3.3 mm
11:40 PM 58.4°F14.7°C 46.0°F7.8°C 63% 4.9 mph ENE7.9 kmh ENE 12.0 mph19.3 kmh 30.24 in1024.0 mb 0.00 in0.0 mm 0.00 in0.0 mm 0.13 in3.3 mm
11:45 PM 58.3°F14.6°C 46.0°F7.8°C 64% 4.9 mph NE7.9 kmh NE 11.0 mph17.7 kmh 30.24 in1024.0 mb 0.00 in0.0 mm 0.00 in0.0 mm 0.13 in3.3 mm
11:50 PM 58.3°F14.6°C 46.0°F7.8°C 64% 4.8 mph E7.7 kmh E 13.0 mph20.9 kmh 30.24 in1024.0 mb 0.00 in0.0 mm 0.00 in0.0 mm 0.13 in3.3 mm
11:55 PM 58.3°F14.6°C 46.0°F7.8°C 64% 4.5 mph ENE7.2 kmh ENE 13.0 mph20.9 kmh 30.24 in1024.0 mb 0.00 in0.0 mm 0.00 in0.0 mm 0.13 in3.3 mm